sensor_id;sensor_type;location;lat;lon;timestamp;P1;durP1;ratioP1;P2;durP2;ratioP2
68608;SDS011;55581;46.718;7.690;2023-04-03T00:01:11;1.03;;;0.20;;
68608;SDS011;55581;46.718;7.690;2023-04-03T00:03:36;1.00;;;0.10;;
68608;SDS011;55581;46.718;7.690;2023-04-03T00:06:04;1.38;;;0.20;;
68608;SDS011;55581;46.718;7.690;2023-04-03T00:08:35;1.45;;;0.20;;
68608;SDS011;55581;46.718;7.690;2023-04-03T00:11:01;1.33;;;0.20;;
68608;SDS011;55581;46.718;7.690;2023-04-03T00:13:27;4.20;;;0.22;;
68608;SDS011;55581;46.718;7.690;2023-04-03T00:15:53;1.05;;;0.20;;
68608;SDS011;55581;46.718;7.690;2023-04-03T00:18:18;1.77;;;0.43;;
68608;SDS011;55581;46.718;7.690;2023-04-03T00:20:43;1.53;;;0.30;;
68608;SDS011;55581;46.718;7.690;2023-04-03T00:23:09;1.50;;;0.20;;
68608;SDS011;55581;46.718;7.690;2023-04-03T00:25:35;1.13;;;0.20;;
68608;SDS011;55581;46.718;7.690;2023-04-03T00:28:01;1.23;;;0.25;;
68608;SDS011;55581;46.718;7.690;2023-04-03T00:30:27;0.80;;;0.10;;
68608;SDS011;55581;46.718;7.690;2023-04-03T00:32:53;1.00;;;0.20;;
68608;SDS011;55581;46.718;7.690;2023-04-03T00:35:19;1.20;;;0.20;;
68608;SDS011;55581;46.718;7.690;2023-04-03T00:37:45;2.50;;;0.20;;
68608;SDS011;55581;46.718;7.690;2023-04-03T00:40:12;2.58;;;0.90;;
68608;SDS011;55581;46.718;7.690;2023-04-03T00:42:39;2.45;;;0.20;;
68608;SDS011;55581;46.718;7.690;2023-04-03T00:47:42;1.73;;;0.20;;
68608;SDS011;55581;46.718;7.690;2023-04-03T00:50:08;1.37;;;0.20;;
68608;SDS011;55581;46.718;7.690;2023-04-03T00:52:34;0.98;;;0.10;;
68608;SDS011;55581;46.718;7.690;2023-04-03T00:55:03;1.67;;;0.20;;
68608;SDS011;55581;46.718;7.690;2023-04-03T00:57:31;1.65;;;0.40;;
68608;SDS011;55581;46.718;7.690;2023-04-03T00:59:59;0.70;;;0.10;;
68608;SDS011;55581;46.718;7.690;2023-04-03T01:02:37;1.05;;;0.17;;
68608;SDS011;55581;46.718;7.690;2023-04-03T01:05:03;1.07;;;0.10;;
68608;SDS011;55581;46.718;7.690;2023-04-03T01:07:30;1.05;;;0.20;;
68608;SDS011;55581;46.718;7.690;2023-04-03T01:09:57;0.85;;;0.10;;
68608;SDS011;55581;46.718;7.690;2023-04-03T01:12:26;1.48;;;0.13;;
68608;SDS011;55581;46.718;7.690;2023-04-03T01:14:58;1.23;;;0.10;;
68608;SDS011;55581;46.718;7.690;2023-04-03T01:25:35;5.57;;;0.30;;
68608;SDS011;55581;46.718;7.690;2023-04-03T01:28:04;0.93;;;0.17;;
68608;SDS011;55581;46.718;7.690;2023-04-03T01:30:33;2.50;;;0.73;;
68608;SDS011;55581;46.718;7.690;2023-04-03T01:33:01;1.30;;;0.30;;
68608;SDS011;55581;46.718;7.690;2023-04-03T01:35:27;1.02;;;0.20;;
68608;SDS011;55581;46.718;7.690;2023-04-03T01:37:52;1.50;;;0.20;;
68608;SDS011;55581;46.718;7.690;2023-04-03T01:40:21;1.50;;;0.30;;
68608;SDS011;55581;46.718;7.690;2023-04-03T01:42:46;1.20;;;0.30;;
68608;SDS011;55581;46.718;7.690;2023-04-03T01:45:11;1.03;;;0.20;;
68608;SDS011;55581;46.718;7.690;2023-04-03T01:47:37;1.58;;;0.40;;
68608;SDS011;55581;46.718;7.690;2023-04-03T01:50:02;1.33;;;0.40;;
68608;SDS011;55581;46.718;7.690;2023-04-03T01:52:28;1.35;;;0.20;;
68608;SDS011;55581;46.718;7.690;2023-04-03T01:54:54;1.63;;;0.20;;
68608;SDS011;55581;46.718;7.690;2023-04-03T01:57:19;1.50;;;0.17;;
68608;SDS011;55581;46.718;7.690;2023-04-03T01:59:44;2.70;;;0.17;;
68608;SDS011;55581;46.718;7.690;2023-04-03T02:02:10;1.10;;;0.10;;
68608;SDS011;55581;46.718;7.690;2023-04-03T02:04:37;1.40;;;0.20;;
68608;SDS011;55581;46.718;7.690;2023-04-03T02:07:03;1.33;;;0.28;;
68608;SDS011;55581;46.718;7.690;2023-04-03T02:09:30;1.10;;;0.10;;
68608;SDS011;55581;46.718;7.690;2023-04-03T02:11:56;0.87;;;0.10;;
68608;SDS011;55581;46.718;7.690;2023-04-03T02:14:21;1.80;;;0.10;;
68608;SDS011;55581;46.718;7.690;2023-04-03T02:16:48;1.38;;;0.20;;
68608;SDS011;55581;46.718;7.690;2023-04-03T02:19:14;1.25;;;0.17;;
68608;SDS011;55581;46.718;7.690;2023-04-03T02:21:39;1.67;;;0.10;;
68608;SDS011;55581;46.718;7.690;2023-04-03T02:24:05;0.93;;;0.13;;
68608;SDS011;55581;46.718;7.690;2023-04-03T02:26:31;1.27;;;0.20;;
68608;SDS011;55581;46.718;7.690;2023-04-03T02:28:58;3.30;;;0.30;;
68608;SDS011;55581;46.718;7.690;2023-04-03T02:31:24;3.78;;;0.35;;
68608;SDS011;55581;46.718;7.690;2023-04-03T02:33:50;1.95;;;0.20;;
68608;SDS011;55581;46.718;7.690;2023-04-03T02:36:15;1.17;;;0.27;;
68608;SDS011;55581;46.718;7.690;2023-04-03T02:38:41;1.10;;;0.40;;
68608;SDS011;55581;46.718;7.690;2023-04-03T02:41:07;1.10;;;0.20;;
68608;SDS011;55581;46.718;7.690;2023-04-03T02:43:34;2.97;;;0.20;;
68608;SDS011;55581;46.718;7.690;2023-04-03T02:46:02;1.00;;;0.10;;
68608;SDS011;55581;46.718;7.690;2023-04-03T02:48:30;1.45;;;0.10;;
68608;SDS011;55581;46.718;7.690;2023-04-03T02:50:56;1.30;;;0.20;;
68608;SDS011;55581;46.718;7.690;2023-04-03T02:53:22;1.20;;;0.10;;
68608;SDS011;55581;46.718;7.690;2023-04-03T02:55:50;0.70;;;0.10;;
68608;SDS011;55581;46.718;7.690;2023-04-03T02:58:16;3.47;;;0.20;;
68608;SDS011;55581;46.718;7.690;2023-04-03T03:00:41;1.20;;;0.17;;
68608;SDS011;55581;46.718;7.690;2023-04-03T03:03:07;1.77;;;0.20;;
68608;SDS011;55581;46.718;7.690;2023-04-03T03:05:32;0.90;;;0.10;;
68608;SDS011;55581;46.718;7.690;2023-04-03T03:08:01;0.80;;;0.20;;
68608;SDS011;55581;46.718;7.690;2023-04-03T03:10:26;1.30;;;0.20;;
68608;SDS011;55581;46.718;7.690;2023-04-03T03:12:51;1.50;;;0.30;;
68608;SDS011;55581;46.718;7.690;2023-04-03T03:15:17;1.27;;;0.10;;
68608;SDS011;55581;46.718;7.690;2023-04-03T03:17:44;1.05;;;0.10;;
68608;SDS011;55581;46.718;7.690;2023-04-03T03:20:10;0.93;;;0.15;;
68608;SDS011;55581;46.718;7.690;2023-04-03T03:22:36;1.13;;;0.20;;
68608;SDS011;55581;46.718;7.690;2023-04-03T03:25:02;1.27;;;0.20;;
68608;SDS011;55581;46.718;7.690;2023-04-03T03:27:28;1.37;;;0.20;;
68608;SDS011;55581;46.718;7.690;2023-04-03T03:29:53;1.50;;;0.20;;
68608;SDS011;55581;46.718;7.690;2023-04-03T03:32:19;1.17;;;0.20;;
68608;SDS011;55581;46.718;7.690;2023-04-03T03:34:44;1.67;;;0.20;;
68608;SDS011;55581;46.718;7.690;2023-04-03T03:37:10;1.07;;;0.10;;
68608;SDS011;55581;46.718;7.690;2023-04-03T03:39:35;1.75;;;0.20;;
68608;SDS011;55581;46.718;7.690;2023-04-03T03:42:00;1.80;;;0.20;;
68608;SDS011;55581;46.718;7.690;2023-04-03T03:44:26;0.90;;;0.20;;
68608;SDS011;55581;46.718;7.690;2023-04-03T03:46:53;3.17;;;0.20;;
68608;SDS011;55581;46.718;7.690;2023-04-03T03:49:19;1.40;;;0.20;;
68608;SDS011;55581;46.718;7.690;2023-04-03T03:51:49;1.07;;;0.20;;
68608;SDS011;55581;46.718;7.690;2023-04-03T03:54:17;0.98;;;0.20;;
68608;SDS011;55581;46.718;7.690;2023-04-03T03:56:42;0.80;;;0.13;;
68608;SDS011;55581;46.718;7.690;2023-04-03T03:59:08;2.40;;;0.20;;
68608;SDS011;55581;46.718;7.690;2023-04-03T04:01:35;1.17;;;0.20;;
68608;SDS011;55581;46.718;7.690;2023-04-03T04:04:01;0.80;;;0.17;;
68608;SDS011;55581;46.718;7.690;2023-04-03T04:06:26;2.80;;;0.30;;
68608;SDS011;55581;46.718;7.690;2023-04-03T04:08:52;1.37;;;0.20;;
68608;SDS011;55581;46.718;7.690;2023-04-03T04:11:17;1.50;;;0.27;;
68608;SDS011;55581;46.718;7.690;2023-04-03T04:13:43;0.90;;;0.10;;
68608;SDS011;55581;46.718;7.690;2023-04-03T04:16:09;1.85;;;0.40;;
68608;SDS011;55581;46.718;7.690;2023-04-03T04:18:35;1.80;;;0.37;;
68608;SDS011;55581;46.718;7.690;2023-04-03T04:21:00;1.83;;;0.20;;
68608;SDS011;55581;46.718;7.690;2023-04-03T04:23:25;2.63;;;0.40;;
68608;SDS011;55581;46.718;7.690;2023-04-03T04:25:51;1.93;;;0.30;;
68608;SDS011;55581;46.718;7.690;2023-04-03T04:28:17;1.30;;;0.30;;
68608;SDS011;55581;46.718;7.690;2023-04-03T04:30:43;1.23;;;0.20;;
68608;SDS011;55581;46.718;7.690;2023-04-03T04:33:08;1.65;;;0.10;;
68608;SDS011;55581;46.718;7.690;2023-04-03T04:35:34;1.10;;;0.10;;
68608;SDS011;55581;46.718;7.690;2023-04-03T04:38:00;1.90;;;0.20;;
68608;SDS011;55581;46.718;7.690;2023-04-03T04:40:26;1.03;;;0.20;;
68608;SDS011;55581;46.718;7.690;2023-04-03T04:42:51;1.23;;;0.30;;
68608;SDS011;55581;46.718;7.690;2023-04-03T04:45:17;2.47;;;0.33;;
68608;SDS011;55581;46.718;7.690;2023-04-03T04:47:42;1.40;;;0.20;;
68608;SDS011;55581;46.718;7.690;2023-04-03T04:50:08;2.00;;;0.37;;
68608;SDS011;55581;46.718;7.690;2023-04-03T04:52:34;1.65;;;0.30;;
68608;SDS011;55581;46.718;7.690;2023-04-03T04:54:59;3.03;;;0.67;;
68608;SDS011;55581;46.718;7.690;2023-04-03T04:57:27;2.05;;;0.40;;
68608;SDS011;55581;46.718;7.690;2023-04-03T04:59:52;4.20;;;1.20;;
68608;SDS011;55581;46.718;7.690;2023-04-03T05:02:18;2.70;;;0.70;;
68608;SDS011;55581;46.718;7.690;2023-04-03T05:04:43;4.03;;;1.30;;
68608;SDS011;55581;46.718;7.690;2023-04-03T05:07:09;4.22;;;1.45;;
68608;SDS011;55581;46.718;7.690;2023-04-03T05:09:34;3.23;;;0.87;;
68608;SDS011;55581;46.718;7.690;2023-04-03T05:12:00;3.77;;;1.30;;
68608;SDS011;55581;46.718;7.690;2023-04-03T05:14:25;3.30;;;1.00;;
68608;SDS011;55581;46.718;7.690;2023-04-03T05:16:51;2.50;;;0.60;;
68608;SDS011;55581;46.718;7.690;2023-04-03T05:19:19;3.08;;;0.70;;
68608;SDS011;55581;46.718;7.690;2023-04-03T05:21:45;3.10;;;0.80;;
68608;SDS011;55581;46.718;7.690;2023-04-03T05:24:10;3.15;;;0.70;;
68608;SDS011;55581;46.718;7.690;2023-04-03T05:26:35;2.20;;;0.50;;
68608;SDS011;55581;46.718;7.690;2023-04-03T05:29:01;3.47;;;1.10;;
68608;SDS011;55581;46.718;7.690;2023-04-03T05:31:27;9.23;;;3.13;;
68608;SDS011;55581;46.718;7.690;2023-04-03T05:33:54;2.45;;;0.75;;
68608;SDS011;55581;46.718;7.690;2023-04-03T05:36:20;2.43;;;0.67;;
68608;SDS011;55581;46.718;7.690;2023-04-03T05:38:48;2.53;;;0.65;;
68608;SDS011;55581;46.718;7.690;2023-04-03T05:41:13;2.77;;;0.77;;
68608;SDS011;55581;46.718;7.690;2023-04-03T05:43:40;3.33;;;0.97;;
68608;SDS011;55581;46.718;7.690;2023-04-03T05:46:09;3.33;;;1.17;;
68608;SDS011;55581;46.718;7.690;2023-04-03T05:48:36;3.47;;;0.67;;
68608;SDS011;55581;46.718;7.690;2023-04-03T05:51:02;3.67;;;1.20;;
68608;SDS011;55581;46.718;7.690;2023-04-03T05:53:28;3.95;;;1.30;;
68608;SDS011;55581;46.718;7.690;2023-04-03T05:55:55;4.05;;;1.33;;
68608;SDS011;55581;46.718;7.690;2023-04-03T05:58:21;3.67;;;1.40;;
68608;SDS011;55581;46.718;7.690;2023-04-03T06:00:46;5.17;;;1.33;;
68608;SDS011;55581;46.718;7.690;2023-04-03T06:03:12;3.88;;;1.30;;
68608;SDS011;55581;46.718;7.690;2023-04-03T06:05:38;4.07;;;1.30;;
68608;SDS011;55581;46.718;7.690;2023-04-03T06:08:03;4.00;;;1.40;;
68608;SDS011;55581;46.718;7.690;2023-04-03T06:10:28;4.67;;;1.87;;
68608;SDS011;55581;46.718;7.690;2023-04-03T06:12:54;4.05;;;1.20;;
68608;SDS011;55581;46.718;7.690;2023-04-03T06:15:20;4.33;;;1.50;;
68608;SDS011;55581;46.718;7.690;2023-04-03T06:17:46;6.72;;;1.80;;
68608;SDS011;55581;46.718;7.690;2023-04-03T06:20:11;4.00;;;1.50;;
68608;SDS011;55581;46.718;7.690;2023-04-03T06:22:37;3.95;;;1.30;;
68608;SDS011;55581;46.718;7.690;2023-04-03T06:25:03;4.40;;;1.50;;
68608;SDS011;55581;46.718;7.690;2023-04-03T06:27:29;3.13;;;1.13;;
68608;SDS011;55581;46.718;7.690;2023-04-03T06:29:55;3.50;;;1.25;;
68608;SDS011;55581;46.718;7.690;2023-04-03T06:32:21;5.03;;;1.87;;
68608;SDS011;55581;46.718;7.690;2023-04-03T06:34:46;3.83;;;1.30;;
68608;SDS011;55581;46.718;7.690;2023-04-03T06:37:17;3.72;;;1.20;;
68608;SDS011;55581;46.718;7.690;2023-04-03T06:39:45;4.40;;;1.60;;
68608;SDS011;55581;46.718;7.690;2023-04-03T06:42:11;3.88;;;1.20;;
68608;SDS011;55581;46.718;7.690;2023-04-03T06:44:36;3.70;;;1.10;;
68608;SDS011;55581;46.718;7.690;2023-04-03T06:47:02;4.00;;;1.58;;
68608;SDS011;55581;46.718;7.690;2023-04-03T06:49:28;4.33;;;1.53;;
68608;SDS011;55581;46.718;7.690;2023-04-03T06:51:54;4.25;;;1.95;;
68608;SDS011;55581;46.718;7.690;2023-04-03T06:54:19;3.83;;;1.40;;
68608;SDS011;55581;46.718;7.690;2023-04-03T06:56:45;4.18;;;1.20;;
68608;SDS011;55581;46.718;7.690;2023-04-03T06:59:11;4.10;;;1.33;;
68608;SDS011;55581;46.718;7.690;2023-04-03T07:01:41;4.65;;;1.70;;
68608;SDS011;55581;46.718;7.690;2023-04-03T07:04:07;3.95;;;1.27;;
68608;SDS011;55581;46.718;7.690;2023-04-03T07:06:32;4.05;;;1.30;;
68608;SDS011;55581;46.718;7.690;2023-04-03T07:08:58;4.00;;;1.77;;
68608;SDS011;55581;46.718;7.690;2023-04-03T07:11:24;5.72;;;1.70;;
68608;SDS011;55581;46.718;7.690;2023-04-03T07:13:51;7.65;;;1.80;;
68608;SDS011;55581;46.718;7.690;2023-04-03T07:16:17;3.58;;;1.45;;
68608;SDS011;55581;46.718;7.690;2023-04-03T07:18:43;4.60;;;1.83;;
68608;SDS011;55581;46.718;7.690;2023-04-03T07:21:08;5.88;;;2.63;;
68608;SDS011;55581;46.718;7.690;2023-04-03T07:23:36;5.93;;;2.53;;
68608;SDS011;55581;46.718;7.690;2023-04-03T07:26:02;5.63;;;2.47;;
68608;SDS011;55581;46.718;7.690;2023-04-03T07:28:27;4.97;;;2.13;;
68608;SDS011;55581;46.718;7.690;2023-04-03T07:31:00;4.70;;;1.83;;
68608;SDS011;55581;46.718;7.690;2023-04-03T07:33:28;4.93;;;2.08;;
68608;SDS011;55581;46.718;7.690;2023-04-03T07:35:54;6.07;;;2.60;;
68608;SDS011;55581;46.718;7.690;2023-04-03T07:38:21;7.07;;;2.55;;
68608;SDS011;55581;46.718;7.690;2023-04-03T07:40:47;5.80;;;2.77;;
68608;SDS011;55581;46.718;7.690;2023-04-03T07:43:14;5.63;;;2.55;;
68608;SDS011;55581;46.718;7.690;2023-04-03T07:45:40;5.78;;;2.60;;
68608;SDS011;55581;46.718;7.690;2023-04-03T07:48:06;5.57;;;2.70;;
68608;SDS011;55581;46.718;7.690;2023-04-03T07:50:32;7.63;;;2.45;;
68608;SDS011;55581;46.718;7.690;2023-04-03T07:53:01;5.45;;;2.13;;
68608;SDS011;55581;46.718;7.690;2023-04-03T07:55:26;5.40;;;2.30;;
68608;SDS011;55581;46.718;7.690;2023-04-03T07:57:52;6.63;;;2.53;;
68608;SDS011;55581;46.718;7.690;2023-04-03T08:00:17;4.87;;;2.20;;
68608;SDS011;55581;46.718;7.690;2023-04-03T08:02:44;4.97;;;2.10;;
68608;SDS011;55581;46.718;7.690;2023-04-03T08:05:15;4.80;;;2.10;;
68608;SDS011;55581;46.718;7.690;2023-04-03T08:07:41;4.78;;;1.85;;
68608;SDS011;55581;46.718;7.690;2023-04-03T08:10:07;5.22;;;1.95;;
68608;SDS011;55581;46.718;7.690;2023-04-03T08:12:33;4.65;;;1.70;;
68608;SDS011;55581;46.718;7.690;2023-04-03T08:15:00;5.30;;;2.10;;
68608;SDS011;55581;46.718;7.690;2023-04-03T08:17:27;4.53;;;1.80;;
68608;SDS011;55581;46.718;7.690;2023-04-03T08:19:53;4.97;;;2.20;;
68608;SDS011;55581;46.718;7.690;2023-04-03T08:22:18;4.97;;;2.22;;
68608;SDS011;55581;46.718;7.690;2023-04-03T08:24:48;4.95;;;2.40;;
68608;SDS011;55581;46.718;7.690;2023-04-03T08:27:14;6.27;;;2.70;;
68608;SDS011;55581;46.718;7.690;2023-04-03T08:29:40;7.03;;;3.08;;
68608;SDS011;55581;46.718;7.690;2023-04-03T08:32:07;5.78;;;2.55;;
68608;SDS011;55581;46.718;7.690;2023-04-03T08:34:33;7.47;;;2.63;;
68608;SDS011;55581;46.718;7.690;2023-04-03T08:37:00;5.72;;;2.60;;
68608;SDS011;55581;46.718;7.690;2023-04-03T08:39:28;5.00;;;2.43;;
68608;SDS011;55581;46.718;7.690;2023-04-03T08:41:55;5.50;;;2.45;;
68608;SDS011;55581;46.718;7.690;2023-04-03T08:49:47;7.20;;;2.92;;
68608;SDS011;55581;46.718;7.690;2023-04-03T08:52:19;6.93;;;3.13;;
68608;SDS011;55581;46.718;7.690;2023-04-03T08:54:54;8.57;;;3.47;;
68608;SDS011;55581;46.718;7.690;2023-04-03T08:57:32;7.03;;;3.40;;
68608;SDS011;55581;46.718;7.690;2023-04-03T09:00:02;7.72;;;3.20;;
68608;SDS011;55581;46.718;7.690;2023-04-03T09:02:51;7.47;;;3.72;;
68608;SDS011;55581;46.718;7.690;2023-04-03T09:05:28;8.38;;;3.47;;
68608;SDS011;55581;46.718;7.690;2023-04-03T09:09:06;7.78;;;3.67;;
68608;SDS011;55581;46.718;7.690;2023-04-03T09:11:23;8.07;;;3.97;;
68608;SDS011;55581;46.718;7.690;2023-04-03T09:13:57;7.43;;;3.40;;
68608;SDS011;55581;46.718;7.690;2023-04-03T09:21:56;8.23;;;3.15;;
68608;SDS011;55581;46.718;7.690;2023-04-03T09:24:24;6.67;;;3.17;;
68608;SDS011;55581;46.718;7.690;2023-04-03T09:26:55;6.65;;;3.25;;
68608;SDS011;55581;46.718;7.690;2023-04-03T09:29:25;6.07;;;2.58;;
68608;SDS011;55581;46.718;7.690;2023-04-03T09:32:02;7.25;;;3.30;;
68608;SDS011;55581;46.718;7.690;2023-04-03T09:34:39;6.60;;;2.67;;
68608;SDS011;55581;46.718;7.690;2023-04-03T09:37:11;5.70;;;2.42;;
68608;SDS011;55581;46.718;7.690;2023-04-03T09:40:27;5.38;;;2.25;;
68608;SDS011;55581;46.718;7.690;2023-04-03T09:45:41;5.22;;;2.30;;
68608;SDS011;55581;46.718;7.690;2023-04-03T09:50:34;4.97;;;2.28;;
68608;SDS011;55581;46.718;7.690;2023-04-03T09:53:29;5.57;;;2.50;;
68608;SDS011;55581;46.718;7.690;2023-04-03T09:55:53;4.53;;;1.98;;
68608;SDS011;55581;46.718;7.690;2023-04-03T09:58:38;5.00;;;2.13;;
68608;SDS011;55581;46.718;7.690;2023-04-03T10:01:06;5.07;;;2.08;;
68608;SDS011;55581;46.718;7.690;2023-04-03T10:06:32;6.63;;;2.23;;
68608;SDS011;55581;46.718;7.690;2023-04-03T10:09:10;4.57;;;2.15;;
68608;SDS011;55581;46.718;7.690;2023-04-03T10:14:36;4.90;;;2.42;;
68608;SDS011;55581;46.718;7.690;2023-04-03T10:25:36;5.47;;;2.30;;
68608;SDS011;55581;46.718;7.690;2023-04-03T10:30:51;5.38;;;2.15;;
68608;SDS011;55581;46.718;7.690;2023-04-03T10:36:22;4.18;;;1.60;;
68608;SDS011;55581;46.718;7.690;2023-04-03T10:39:03;4.72;;;2.08;;
68608;SDS011;55581;46.718;7.690;2023-04-03T10:44:16;5.03;;;2.10;;
68608;SDS011;55581;46.718;7.690;2023-04-03T10:46:48;5.23;;;2.20;;
68608;SDS011;55581;46.718;7.690;2023-04-03T10:52:17;4.88;;;1.85;;
68608;SDS011;55581;46.718;7.690;2023-04-03T10:55:02;6.47;;;2.03;;
68608;SDS011;55581;46.718;7.690;2023-04-03T10:57:51;4.60;;;1.90;;
68608;SDS011;55581;46.718;7.690;2023-04-03T11:00:22;5.10;;;2.07;;
68608;SDS011;55581;46.718;7.690;2023-04-03T11:05:30;4.78;;;2.15;;
68608;SDS011;55581;46.718;7.690;2023-04-03T11:07:57;7.07;;;2.78;;
68608;SDS011;55581;46.718;7.690;2023-04-03T11:10:37;6.28;;;2.92;;
68608;SDS011;55581;46.718;7.690;2023-04-03T11:13:25;6.73;;;3.00;;
68608;SDS011;55581;46.718;7.690;2023-04-03T11:15:58;5.95;;;2.70;;
68608;SDS011;55581;46.718;7.690;2023-04-03T11:18:31;7.72;;;2.97;;
68608;SDS011;55581;46.718;7.690;2023-04-03T11:23:45;6.93;;;3.38;;
68608;SDS011;55581;46.718;7.690;2023-04-03T11:26:12;6.23;;;2.83;;
68608;SDS011;55581;46.718;7.690;2023-04-03T11:28:40;6.18;;;3.38;;
68608;SDS011;55581;46.718;7.690;2023-04-03T11:36:48;6.20;;;3.03;;
68608;SDS011;55581;46.718;7.690;2023-04-03T11:39:25;8.00;;;3.57;;
68608;SDS011;55581;46.718;7.690;2023-04-03T11:41:54;7.03;;;3.22;;
68608;SDS011;55581;46.718;7.690;2023-04-03T11:44:36;7.82;;;3.25;;
68608;SDS011;55581;46.718;7.690;2023-04-03T11:47:04;6.70;;;3.05;;
68608;SDS011;55581;46.718;7.690;2023-04-03T12:32:10;7.72;;;3.10;;
68608;SDS011;55581;46.718;7.690;2023-04-03T12:35:26;7.13;;;3.60;;
68608;SDS011;55581;46.718;7.690;2023-04-03T12:43:09;6.30;;;3.22;;
68608;SDS011;55581;46.718;7.690;2023-04-03T12:51:14;9.15;;;3.78;;
68608;SDS011;55581;46.718;7.690;2023-04-03T12:53:46;8.50;;;4.05;;
68608;SDS011;55581;46.718;7.690;2023-04-03T12:58:46;6.60;;;2.47;;
68608;SDS011;55581;46.718;7.690;2023-04-03T13:01:13;4.90;;;2.25;;
68608;SDS011;55581;46.718;7.690;2023-04-03T13:03:51;5.85;;;2.50;;
68608;SDS011;55581;46.718;7.690;2023-04-03T13:06:28;5.45;;;2.53;;
68608;SDS011;55581;46.718;7.690;2023-04-03T13:08:59;6.97;;;3.15;;
68608;SDS011;55581;46.718;7.690;2023-04-03T13:11:27;6.47;;;2.70;;
68608;SDS011;55581;46.718;7.690;2023-04-03T13:13:58;5.78;;;2.67;;
68608;SDS011;55581;46.718;7.690;2023-04-03T13:16:25;6.78;;;2.70;;
68608;SDS011;55581;46.718;7.690;2023-04-03T13:18:52;6.53;;;2.90;;
68608;SDS011;55581;46.718;7.690;2023-04-03T13:21:28;5.63;;;2.22;;
68608;SDS011;55581;46.718;7.690;2023-04-03T13:23:58;8.03;;;2.77;;
68608;SDS011;55581;46.718;7.690;2023-04-03T13:26:28;6.18;;;2.83;;
68608;SDS011;55581;46.718;7.690;2023-04-03T13:29:03;7.65;;;2.90;;
68608;SDS011;55581;46.718;7.690;2023-04-03T13:31:37;7.30;;;2.90;;
68608;SDS011;55581;46.718;7.690;2023-04-03T13:36:36;6.33;;;3.00;;
68608;SDS011;55581;46.718;7.690;2023-04-03T13:39:25;6.65;;;2.40;;
68608;SDS011;55581;46.718;7.690;2023-04-03T13:42:01;6.03;;;2.58;;
68608;SDS011;55581;46.718;7.690;2023-04-03T13:44:39;5.63;;;2.38;;
68608;SDS011;55581;46.718;7.690;2023-04-03T13:50:03;8.07;;;2.77;;
68608;SDS011;55581;46.718;7.690;2023-04-03T13:57:59;4.78;;;2.05;;
68608;SDS011;55581;46.718;7.690;2023-04-03T14:02:59;5.07;;;2.27;;
68608;SDS011;55581;46.718;7.690;2023-04-03T14:05:25;5.18;;;2.30;;
68608;SDS011;55581;46.718;7.690;2023-04-03T14:07:52;5.55;;;2.33;;
68608;SDS011;55581;46.718;7.690;2023-04-03T14:10:18;5.32;;;2.00;;
68608;SDS011;55581;46.718;7.690;2023-04-03T14:12:44;5.80;;;2.10;;
68608;SDS011;55581;46.718;7.690;2023-04-03T14:17:48;9.65;;;3.20;;
68608;SDS011;55581;46.718;7.690;2023-04-03T14:20:16;5.38;;;2.40;;
68608;SDS011;55581;46.718;7.690;2023-04-03T14:22:43;5.20;;;2.37;;
68608;SDS011;55581;46.718;7.690;2023-04-03T14:25:09;4.68;;;2.03;;
68608;SDS011;55581;46.718;7.690;2023-04-03T14:27:38;4.97;;;2.40;;
68608;SDS011;55581;46.718;7.690;2023-04-03T14:30:08;4.95;;;2.17;;
68608;SDS011;55581;46.718;7.690;2023-04-03T14:32:38;5.80;;;2.43;;
68608;SDS011;55581;46.718;7.690;2023-04-03T14:35:04;5.80;;;2.50;;
68608;SDS011;55581;46.718;7.690;2023-04-03T14:37:32;5.18;;;2.38;;
68608;SDS011;55581;46.718;7.690;2023-04-03T14:39:58;5.93;;;2.30;;
68608;SDS011;55581;46.718;7.690;2023-04-03T14:42:29;4.72;;;2.22;;
68608;SDS011;55581;46.718;7.690;2023-04-03T14:44:58;4.95;;;2.08;;
68608;SDS011;55581;46.718;7.690;2023-04-03T14:47:26;5.23;;;2.10;;
68608;SDS011;55581;46.718;7.690;2023-04-03T14:49:53;5.57;;;2.22;;
68608;SDS011;55581;46.718;7.690;2023-04-03T14:52:27;6.50;;;2.30;;
68608;SDS011;55581;46.718;7.690;2023-04-03T14:54:58;5.88;;;2.47;;
68608;SDS011;55581;46.718;7.690;2023-04-03T14:57:24;5.37;;;2.13;;
68608;SDS011;55581;46.718;7.690;2023-04-03T14:59:53;4.45;;;2.17;;
68608;SDS011;55581;46.718;7.690;2023-04-03T15:02:26;5.80;;;2.63;;
68608;SDS011;55581;46.718;7.690;2023-04-03T15:05:00;5.18;;;2.17;;
68608;SDS011;55581;46.718;7.690;2023-04-03T15:07:29;5.95;;;2.70;;
68608;SDS011;55581;46.718;7.690;2023-04-03T15:10:02;6.10;;;2.37;;
68608;SDS011;55581;46.718;7.690;2023-04-03T15:12:38;5.40;;;2.67;;
68608;SDS011;55581;46.718;7.690;2023-04-03T15:15:04;5.37;;;2.17;;
68608;SDS011;55581;46.718;7.690;2023-04-03T15:17:30;5.13;;;2.50;;
68608;SDS011;55581;46.718;7.690;2023-04-03T15:20:00;6.15;;;2.88;;
68608;SDS011;55581;46.718;7.690;2023-04-03T15:22:26;5.78;;;2.42;;
68608;SDS011;55581;46.718;7.690;2023-04-03T15:24:51;5.50;;;2.47;;
68608;SDS011;55581;46.718;7.690;2023-04-03T15:27:17;5.50;;;2.55;;
68608;SDS011;55581;46.718;7.690;2023-04-03T15:29:45;6.03;;;3.00;;
68608;SDS011;55581;46.718;7.690;2023-04-03T15:32:10;5.80;;;2.47;;
68608;SDS011;55581;46.718;7.690;2023-04-03T15:34:37;6.40;;;2.80;;
68608;SDS011;55581;46.718;7.690;2023-04-03T15:37:07;7.10;;;3.08;;
68608;SDS011;55581;46.718;7.690;2023-04-03T15:39:32;6.60;;;3.03;;
68608;SDS011;55581;46.718;7.690;2023-04-03T15:41:58;7.45;;;3.00;;
68608;SDS011;55581;46.718;7.690;2023-04-03T15:44:31;5.72;;;2.70;;
68608;SDS011;55581;46.718;7.690;2023-04-03T15:46:58;6.00;;;2.40;;
68608;SDS011;55581;46.718;7.690;2023-04-03T15:49:24;6.80;;;3.10;;
68608;SDS011;55581;46.718;7.690;2023-04-03T15:51:51;5.88;;;2.85;;
68608;SDS011;55581;46.718;7.690;2023-04-03T15:54:16;6.63;;;3.10;;
68608;SDS011;55581;46.718;7.690;2023-04-03T15:56:42;5.63;;;2.60;;
68608;SDS011;55581;46.718;7.690;2023-04-03T15:59:07;5.80;;;2.50;;
68608;SDS011;55581;46.718;7.690;2023-04-03T16:01:33;6.23;;;2.60;;
68608;SDS011;55581;46.718;7.690;2023-04-03T16:03:58;6.13;;;2.40;;
68608;SDS011;55581;46.718;7.690;2023-04-03T16:06:26;5.87;;;2.60;;
68608;SDS011;55581;46.718;7.690;2023-04-03T16:08:54;6.10;;;2.70;;
68608;SDS011;55581;46.718;7.690;2023-04-03T16:11:23;6.30;;;2.63;;
68608;SDS011;55581;46.718;7.690;2023-04-03T16:13:51;5.43;;;2.37;;
68608;SDS011;55581;46.718;7.690;2023-04-03T16:16:17;5.55;;;2.42;;
68608;SDS011;55581;46.718;7.690;2023-04-03T16:18:43;5.20;;;2.80;;
68608;SDS011;55581;46.718;7.690;2023-04-03T16:21:08;6.57;;;2.30;;
68608;SDS011;55581;46.718;7.690;2023-04-03T16:23:34;5.80;;;2.57;;
68608;SDS011;55581;46.718;7.690;2023-04-03T16:26:00;5.57;;;2.80;;
68608;SDS011;55581;46.718;7.690;2023-04-03T16:28:25;5.00;;;2.20;;
68608;SDS011;55581;46.718;7.690;2023-04-03T16:30:51;5.30;;;2.27;;
68608;SDS011;55581;46.718;7.690;2023-04-03T16:33:19;5.88;;;2.20;;
68608;SDS011;55581;46.718;7.690;2023-04-03T16:35:47;6.30;;;2.50;;
68608;SDS011;55581;46.718;7.690;2023-04-03T16:38:13;6.13;;;2.25;;
68608;SDS011;55581;46.718;7.690;2023-04-03T16:40:39;5.82;;;2.72;;
68608;SDS011;55581;46.718;7.690;2023-04-03T16:43:06;8.23;;;3.60;;
68608;SDS011;55581;46.718;7.690;2023-04-03T16:45:33;5.07;;;2.42;;
68608;SDS011;55581;46.718;7.690;2023-04-03T16:47:58;7.40;;;2.97;;
68608;SDS011;55581;46.718;7.690;2023-04-03T16:50:24;5.57;;;2.08;;
68608;SDS011;55581;46.718;7.690;2023-04-03T16:52:49;5.73;;;2.50;;
68608;SDS011;55581;46.718;7.690;2023-04-03T16:55:15;5.87;;;2.60;;
68608;SDS011;55581;46.718;7.690;2023-04-03T16:57:40;6.32;;;2.60;;
68608;SDS011;55581;46.718;7.690;2023-04-03T17:00:08;5.72;;;2.35;;
68608;SDS011;55581;46.718;7.690;2023-04-03T17:02:36;9.43;;;3.20;;
68608;SDS011;55581;46.718;7.690;2023-04-03T17:05:01;5.50;;;2.13;;
68608;SDS011;55581;46.718;7.690;2023-04-03T17:07:30;6.50;;;2.20;;
68608;SDS011;55581;46.718;7.690;2023-04-03T17:09:55;11.70;;;5.68;;